Time;durP1;ratioP1;P1;durP2;ratioP2;P2;SDS_P1;SDS_P2;PMS_P1;PMS_P2;Temp;Humidity;BMP_temperature;BMP_pressure;BME280_temperature;BME280_humidity;BME280_pressure;Samples;Min_cycle;Max_cycle;Signal;HPM_P1;HPM_P2
2021/09/21 00:00:57;;;;;;;;;;;;;;;16.17;77.21;100996.89;1883612;76;20149;-62
2021/09/21 00:03:25;;;;;;;;;;;;;;;16.21;77.14;100999.29;1883620;76;20114;-62
2021/09/21 00:05:52;;;;;;;;;;;;;;;16.27;77.03;101001.18;1879050;76;20150;-62
2021/09/21 00:08:20;;;;;;;;;;;;;;;16.30;76.94;100992.55;1874480;77;20111;-62
2021/09/21 00:10:48;;;;;;;;;;;;;;;16.33;77.94;100992.39;1874494;77;20149;-62
2021/09/21 00:13:16;;;;;;;;;;;;;;;16.34;78.32;100994.56;1874706;77;20145;-64
2021/09/21 00:15:43;;;;;;;;;;;;;;;16.35;78.03;100994.95;1874475;77;20236;-62
2021/09/21 00:18:11;;;;;;;;;;;;;;;16.34;77.93;100987.92;1874498;77;20145;-62
2021/09/21 00:20:39;;;;;;;;;;;;;;;16.34;78.14;100995.89;1874473;77;20107;-62
2021/09/21 00:23:07;;;;;;;;;;;;;;;16.35;77.96;100994.95;1874499;77;20115;-62
2021/09/21 00:25:35;;;;;;;;;;;;;;;16.36;78.70;100999.34;1874470;77;20115;-62
2021/09/21 00:28:03;;;;;;;;;;;;;;;16.37;78.46;101006.34;1874374;77;20111;-62
2021/09/21 00:30:32;;;;;;;;;;;;;;;16.39;80.60;101008.44;1874591;77;20119;-62
2021/09/21 00:33:14;;;;;;;;;;;;;;;16.38;80.71;101010.73;1874497;77;20123;-62
2021/09/21 00:35:32;;;;;;;;;;;;;;;16.37;80.71;101005.87;1875183;75;20119;-62
2021/09/21 00:38:01;;;;;;;;;;;;;;;16.36;80.70;101005.50;1874475;77;20115;-61
2021/09/21 00:40:29;;;;;;;;;;;;;;;16.36;80.49;101013.95;1874388;77;20107;-62
2021/09/21 00:42:58;;;;;;;;;;;;;;;16.34;80.27;101002.53;1874448;77;20099;-62
2021/09/21 00:45:26;;;;;;;;;;;;;;;16.31;79.90;101003.58;1874595;75;20107;-62
2021/09/21 00:47:54;;;;;;;;;;;;;;;16.30;79.75;101003.67;1874395;77;20436;-61
2021/09/21 00:50:23;;;;;;;;;;;;;;;16.29;79.57;101003.30;1874705;77;20141;-62
2021/09/21 00:52:52;;;;;;;;;;;;;;;16.26;79.34;101000.81;1874554;77;20423;-62
2021/09/21 00:55:19;;;;;;;;;;;;;;;16.25;79.28;101007.06;1874449;77;20162;-62
2021/09/21 00:57:48;;;;;;;;;;;;;;;16.26;79.55;101011.44;1874488;77;20115;-62
2021/09/21 01:00:16;;;;;;;;;;;;;;;16.27;79.44;101007.83;1874464;77;20119;-62
2021/09/21 01:02:44;;;;;;;;;;;;;;;16.28;79.41;101014.86;1874479;77;20174;-62
2021/09/21 01:05:12;;;;;;;;;;;;;;;16.30;79.25;101015.63;1874389;76;20142;-64
2021/09/21 01:07:41;;;;;;;;;;;;;;;16.33;79.13;101028.74;1874368;77;20123;-62
2021/09/21 01:10:10;;;;;;;;;;;;;;;16.34;79.02;101019.80;1874565;77;20103;-62
2021/09/21 01:12:39;;;;;;;;;;;;;;;16.33;79.09;101022.09;1874486;77;20400;-62
2021/09/21 01:15:08;;;;;;;;;;;;;;;16.34;79.10;101031.77;1874488;77;20103;-62
2021/09/21 01:17:36;;;;;;;;;;;;;;;16.34;79.06;101029.11;1874450;77;20123;-62
2021/09/21 01:20:07;;;;;;;;;;;;;;;16.34;78.98;101021.14;1879161;76;20106;-60
2021/09/21 01:22:34;;;;;;;;;;;;;;;16.34;78.91;101015.81;1886954;76;20126;-59
2021/09/21 01:25:03;;;;;;;;;;;;;;;16.36;78.89;101010.81;1887019;76;20102;-60
2021/09/21 01:27:30;;;;;;;;;;;;;;;16.39;78.92;101015.08;1886832;76;20115;-59
2021/09/21 01:29:58;;;;;;;;;;;;;;;16.39;78.92;101018.59;1886993;76;20141;-60
2021/09/21 01:32:26;;;;;;;;;;;;;;;16.43;78.82;101019.27;1886951;76;20143;-62
2021/09/21 01:34:54;;;;;;;;;;;;;;;16.46;78.86;101017.77;1886889;76;20185;-62
2021/09/21 01:37:24;;;;;;;;;;;;;;;16.49;78.89;101015.38;1886979;76;20118;-63
2021/09/21 01:39:52;;;;;;;;;;;;;;;16.49;78.84;101017.59;1887082;76;20154;-62
2021/09/21 01:42:19;;;;;;;;;;;;;;;16.51;78.68;101009.05;1886960;76;20157;-61
2021/09/21 01:44:47;;;;;;;;;;;;;;;16.53;78.74;100999.66;1886972;76;20142;-62
2021/09/21 01:47:17;;;;;;;;;;;;;;;16.55;79.03;101004.41;1886846;76;20115;-62
2021/09/21 01:50:17;;;;;;;;;;;;;;;16.56;78.76;101008.31;1887111;76;20157;-61
2021/09/21 01:52:38;;;;;;;;;;;;;;;16.57;78.56;101011.33;1883363;76;20204;-62
2021/09/21 01:55:09;;;;;;;;;;;;;;;16.57;78.46;101003.36;1885385;76;20114;-62
2021/09/21 02:00:17;;;;;;;;;;;;;;;16.58;78.47;101007.73;1887121;76;20381;-62
2021/09/21 02:02:44;;;;;;;;;;;;;;;16.59;78.48;100997.47;1886973;76;20110;-63
2021/09/21 02:05:12;;;;;;;;;;;;;;;16.62;78.38;100999.56;1886977;76;20102;-62
2021/09/21 02:07:41;;;;;;;;;;;;;;;16.65;78.32;101007.36;1886902;76;20158;-62
2021/09/21 02:10:09;;;;;;;;;;;;;;;16.67;78.35;101012.11;1886866;76;20110;-62
2021/09/21 02:12:37;;;;;;;;;;;;;;;16.68;78.32;101005.86;1886980;76;20119;-62
2021/09/21 02:15:05;;;;;;;;;;;;;;;16.70;78.28;101002.63;1886953;76;20111;-62
2021/09/21 02:17:33;;;;;;;;;;;;;;;16.71;78.09;100999.00;1886970;76;20384;-62
2021/09/21 02:20:01;;;;;;;;;;;;;;;16.71;78.18;100996.34;1904605;75;20167;-62
2021/09/21 02:22:29;;;;;;;;;;;;;;;16.72;78.29;100999.40;1913196;75;20114;-63
2021/09/21 02:24:57;;;;;;;;;;;;;;;16.71;78.08;100997.67;1913341;75;20158;-60
2021/09/21 02:27:25;;;;;;;;;;;;;;;16.69;78.01;101000.91;1913152;75;20204;-59
2021/09/21 02:29:53;;;;;;;;;;;;;;;16.67;78.05;101000.98;1913293;75;20152;-60
2021/09/21 02:32:21;;;;;;;;;;;;;;;16.64;78.24;101001.20;1913214;75;20119;-59
2021/09/21 02:34:48;;;;;;;;;;;;;;;16.63;78.18;100994.64;1913371;75;20142;-60
2021/09/21 02:37:17;;;;;;;;;;;;;;;16.63;78.08;100993.30;1913089;75;20118;-60
2021/09/21 02:39:45;;;;;;;;;;;;;;;16.63;78.02;100994.64;1913238;75;20118;-60
2021/09/21 02:42:13;;;;;;;;;;;;;;;16.63;78.01;100999.95;1913309;75;20153;-60
2021/09/21 02:44:41;;;;;;;;;;;;;;;16.63;78.09;101007.92;1913229;75;20145;-60
2021/09/21 02:47:09;;;;;;;;;;;;;;;16.63;78.13;100998.63;1913187;75;20118;-60
2021/09/21 02:49:37;;;;;;;;;;;;;;;16.63;78.05;100998.63;1913145;75;20141;-60
2021/09/21 02:52:05;;;;;;;;;;;;;;;16.62;78.03;101009.74;1913204;75;20123;-60
2021/09/21 02:54:33;;;;;;;;;;;;;;;16.62;78.30;101011.06;1913247;75;20110;-60
2021/09/21 02:57:00;;;;;;;;;;;;;;;16.60;78.28;101003.66;1913165;75;20190;-60
2021/09/21 02:59:28;;;;;;;;;;;;;;;16.58;78.39;100996.23;1913183;75;20115;-60
2021/09/21 03:01:56;;;;;;;;;;;;;;;16.57;78.35;100990.06;1913177;75;20115;-60
2021/09/21 03:04:34;;;;;;;;;;;;;;;16.58;78.24;100973.18;1913037;75;20110;-60
2021/09/21 03:07:04;;;;;;;;;;;;;;;16.57;78.18;100974.11;1912543;75;20149;-60
2021/09/21 03:17:32;;;;;;;;;;;;;;;16.56;78.04;100993.69;1913280;75;20114;-60
2021/09/21 03:20:01;;;;;;;;;;;;;;;16.53;77.94;100981.90;1913238;75;20162;-60
2021/09/21 03:22:29;;;;;;;;;;;;;;;16.51;77.88;100977.64;1913279;75;20110;-60
2021/09/21 03:24:57;;;;;;;;;;;;;;;16.49;77.89;100981.71;1913369;75;20119;-60
2021/09/21 03:27:25;;;;;;;;;;;;;;;16.49;78.10;100989.69;1913172;75;20240;-60
2021/09/21 03:29:52;;;;;;;;;;;;;;;16.50;78.03;100997.17;1913284;75;20119;-60
2021/09/21 03:32:25;;;;;;;;;;;;;;;16.50;77.96;100998.02;1934637;73;20116;-60
2021/09/21 03:34:51;;;;;;;;;;;;;;;16.50;77.91;100995.36;1941340;74;20144;-60
2021/09/21 03:37:19;;;;;;;;;;;;;;;16.51;77.95;100990.92;1941305;74;20121;-60
2021/09/21 03:39:47;;;;;;;;;;;;;;;16.51;77.91;100985.13;1941203;74;20112;-59
2021/09/21 03:42:15;;;;;;;;;;;;;;;16.52;77.89;100984.16;1941308;74;20117;-59
2021/09/21 03:44:43;;;;;;;;;;;;;;;16.54;77.85;100980.97;1941311;74;20112;-60
2021/09/21 03:47:11;;;;;;;;;;;;;;;16.56;77.87;100993.69;1941190;74;20120;-61
2021/09/21 03:49:39;;;;;;;;;;;;;;;16.58;77.88;100989.13;1941267;74;20113;-63
2021/09/21 03:52:07;;;;;;;;;;;;;;;16.62;77.89;101000.88;1941277;74;20148;-63
2021/09/21 03:54:35;;;;;;;;;;;;;;;16.62;77.87;100999.11;1941249;74;20207;-60
2021/09/21 03:57:03;;;;;;;;;;;;;;;16.66;77.83;101002.44;1941295;74;20104;-60
2021/09/21 03:59:31;;;;;;;;;;;;;;;16.66;77.82;101007.75;1941295;74;20139;-61
2021/09/21 04:01:58;;;;;;;;;;;;;;;16.66;77.79;101001.11;1941279;74;20116;-62
2021/09/21 04:04:26;;;;;;;;;;;;;;;16.66;77.81;101003.77;1941309;74;20156;-61
2021/09/21 04:06:54;;;;;;;;;;;;;;;16.67;77.77;101004.13;1941235;74;20117;-61
2021/09/21 04:09:22;;;;;;;;;;;;;;;16.69;77.77;100991.59;1941366;74;20109;-61
2021/09/21 04:11:50;;;;;;;;;;;;;;;16.70;77.72;100991.51;1941301;74;20110;-61
2021/09/21 04:14:18;;;;;;;;;;;;;;;16.73;77.72;100987.83;1941297;74;20169;-61
2021/09/21 04:16:46;;;;;;;;;;;;;;;16.72;77.69;100984.77;1941291;74;20113;-62
2021/09/21 04:19:13;;;;;;;;;;;;;;;16.70;77.83;100979.55;1940870;74;20147;-63
2021/09/21 04:21:41;;;;;;;;;;;;;;;16.70;77.75;100980.03;1941229;74;20188;-60
2021/09/21 04:24:09;;;;;;;;;;;;;;;16.69;78.47;100978.30;1941210;74;20182;-61
2021/09/21 04:26:37;;;;;;;;;;;;;;;16.66;78.05;100993.13;1941359;74;20164;-61
2021/09/21 04:29:05;;;;;;;;;;;;;;;16.63;78.80;101017.23;1941231;74;20112;-61
2021/09/21 04:31:34;;;;;;;;;;;;;;;16.60;78.70;101033.75;1941164;73;20108;-63
2021/09/21 04:34:02;;;;;;;;;;;;;;;16.61;78.68;101047.89;1941122;74;20147;-63
2021/09/21 04:36:30;;;;;;;;;;;;;;;16.60;79.07;101052.84;1941202;74;20139;-63
2021/09/21 04:38:58;;;;;;;;;;;;;;;16.58;79.56;101060.91;1941251;74;20120;-63
2021/09/21 04:41:27;;;;;;;;;;;;;;;16.54;80.04;101072.67;1941221;74;20108;-63
2021/09/21 04:43:56;;;;;;;;;;;;;;;16.53;80.05;101083.39;1941274;74;20147;-61
2021/09/21 04:46:24;;;;;;;;;;;;;;;16.49;80.25;101084.04;1941125;74;20108;-61
2021/09/21 04:48:52;;;;;;;;;;;;;;;16.47;80.75;101085.94;1941148;74;20112;-61
2021/09/21 04:51:19;;;;;;;;;;;;;;;16.47;80.36;101082.40;1941205;74;20147;-60
2021/09/21 04:53:47;;;;;;;;;;;;;;;16.44;80.33;101089.24;1941205;74;20160;-60
2021/09/21 04:56:15;;;;;;;;;;;;;;;16.39;80.26;101090.34;1941231;74;20571;-61
2021/09/21 04:58:43;;;;;;;;;;;;;;;16.37;80.18;101095.38;1941260;74;20104;-61
2021/09/21 05:01:11;;;;;;;;;;;;;;;16.35;80.08;101082.17;1941180;74;20139;-61
2021/09/21 05:03:39;;;;;;;;;;;;;;;16.31;80.12;101072.67;1941244;74;20117;-60
2021/09/21 05:06:07;;;;;;;;;;;;;;;16.25;80.51;101082.33;1941281;74;20100;-60
2021/09/21 05:08:34;;;;;;;;;;;;;;;16.22;80.45;101087.81;1941266;74;20172;-61
2021/09/21 05:11:02;;;;;;;;;;;;;;;16.18;80.38;101103.06;1941247;74;20113;-61
2021/09/21 05:13:30;;;;;;;;;;;;;;;16.20;80.27;101110.48;1941146;74;20113;-63
2021/09/21 05:15:58;;;;;;;;;;;;;;;16.28;80.73;101113.17;1941391;74;20180;-60
2021/09/21 05:18:26;;;;;;;;;;;;;;;16.32;80.33;101110.27;1941277;74;20151;-60
2021/09/21 05:20:53;;;;;;;;;;;;;;;16.35;80.17;101111.87;1941246;74;20113;-60
2021/09/21 05:23:21;;;;;;;;;;;;;;;16.41;80.04;101123.48;1941233;74;20176;-60
2021/09/21 05:25:49;;;;;;;;;;;;;;;16.43;79.96;101121.59;1941375;74;20100;-60
2021/09/21 05:28:17;;;;;;;;;;;;;;;16.44;79.97;101118.48;1941181;74;20204;-61
2021/09/21 05:30:45;;;;;;;;;;;;;;;16.44;79.94;101110.50;1941226;74;20112;-61
2021/09/21 05:36:22;;;;;;;;;;;;;;;16.38;79.97;101100.61;1945018;74;20148;-63
2021/09/21 05:38:49;;;;;;;;;;;;;;;16.44;79.96;101089.24;1945237;74;20237;-60
2021/09/21 05:41:17;;;;;;;;;;;;;;;16.46;80.00;101093.52;1945362;74;20144;-60
2021/09/21 05:43:45;;;;;;;;;;;;;;;16.46;79.83;101082.03;1945273;74;20375;-61
2021/09/21 05:46:13;;;;;;;;;;;;;;;16.49;79.75;101070.75;1945175;74;20113;-61
2021/09/21 05:48:41;;;;;;;;;;;;;;;16.50;79.64;101065.80;1945161;74;20113;-60
2021/09/21 05:51:08;;;;;;;;;;;;;;;16.47;79.54;101068.66;1945009;74;20122;-61
2021/09/21 05:53:36;;;;;;;;;;;;;;;16.46;79.39;101069.59;1945199;74;20112;-61
2021/09/21 05:56:04;;;;;;;;;;;;;;;16.42;79.37;101069.88;1945165;74;20100;-62
2021/09/21 05:58:32;;;;;;;;;;;;;;;16.43;79.50;101066.25;1945145;74;20147;-61
2021/09/21 06:01:00;;;;;;;;;;;;;;;16.42;79.46;101060.09;1945170;74;20120;-62
2021/09/21 06:03:27;;;;;;;;;;;;;;;16.42;79.44;101057.91;1945132;74;20155;-64
2021/09/21 06:05:55;;;;;;;;;;;;;;;16.36;79.33;101068.44;1945261;74;20172;-62
2021/09/21 06:08:23;;;;;;;;;;;;;;;16.33;79.33;101080.08;1945233;74;20116;-60
2021/09/21 06:10:52;;;;;;;;;;;;;;;16.36;79.48;101079.06;1945150;74;20108;-61
2021/09/21 06:13:21;;;;;;;;;;;;;;;16.48;79.45;101083.64;1945256;74;20117;-61
2021/09/21 06:15:50;;;;;;;;;;;;;;;16.57;79.38;101089.75;1945148;74;20139;-63
2021/09/21 06:18:18;;;;;;;;;;;;;;;16.79;79.44;101082.69;1945043;74;20163;-62
2021/09/21 06:20:46;;;;;;;;;;;;;;;16.99;79.39;101076.69;1945133;74;20116;-63
2021/09/21 06:23:14;;;;;;;;;;;;;;;17.01;79.17;101073.46;1945131;74;20116;-62
2021/09/21 06:25:42;;;;;;;;;;;;;;;17.04;79.11;101073.28;1945122;74;20113;-63
2021/09/21 06:28:10;;;;;;;;;;;;;;;17.10;79.18;101070.72;1945052;74;20168;-62
2021/09/21 06:30:38;;;;;;;;;;;;;;;17.08;79.09;101068.60;1945035;74;20164;-65
2021/09/21 06:33:05;;;;;;;;;;;;;;;17.12;79.18;101067.00;1945050;74;20097;-61
2021/09/21 06:35:33;;;;;;;;;;;;;;;17.13;79.23;101075.84;1945070;74;20125;-62
2021/09/21 06:38:01;;;;;;;;;;;;;;;17.13;79.42;101079.83;1945122;74;20138;-61
2021/09/21 06:40:30;;;;;;;;;;;;;;;17.17;79.37;101075.57;1945081;74;20410;-61
2021/09/21 06:42:58;;;;;;;;;;;;;;;17.25;79.34;101083.56;1944037;74;20167;-62
2021/09/21 06:45:27;;;;;;;;;;;;;;;17.23;79.16;101081.47;1945162;74;20096;-62
2021/09/21 06:47:55;;;;;;;;;;;;;;;17.18;79.03;101080.41;1945196;74;20105;-62
2021/09/21 06:50:23;;;;;;;;;;;;;;;17.01;78.96;101074.79;1945210;74;20105;-62
2021/09/21 06:52:51;;;;;;;;;;;;;;;16.84;78.94;101080.25;1945234;74;20104;-61
2021/09/21 06:55:19;;;;;;;;;;;;;;;16.66;79.07;101079.54;1945102;74;20228;-62
2021/09/21 06:57:50;;;;;;;;;;;;;;;16.48;79.28;101070.84;1945127;74;20100;-62
2021/09/21 07:00:19;;;;;;;;;;;;;;;16.35;79.68;101077.34;1945120;74;20168;-61
2021/09/21 07:02:50;;;;;;;;;;;;;;;16.21;79.97;101070.14;1945206;74;20116;-62
2021/09/21 07:08:05;;;;;;;;;;;;;;;16.07;80.28;101080.25;1945077;74;20125;-62
2021/09/21 07:10:32;;;;;;;;;;;;;;;16.00;80.24;101076.22;1945232;74;20180;-61
2021/09/21 07:13:00;;;;;;;;;;;;;;;15.90;80.27;101067.92;1945260;74;20114;-61
2021/09/21 07:15:28;;;;;;;;;;;;;;;15.86;80.42;101068.16;1945472;74;20206;-61
2021/09/21 07:17:56;;;;;;;;;;;;;;;15.82;80.52;101071.02;1945188;74;20139;-62
2021/09/21 07:20:25;;;;;;;;;;;;;;;15.82;80.55;101081.63;1945139;74;20116;-62
2021/09/21 07:22:53;;;;;;;;;;;;;;;15.83;80.37;101099.74;1945103;74;20355;-61
2021/09/21 07:25:24;;;;;;;;;;;;;;;15.83;80.38;101099.74;1945170;74;20116;-61
2021/09/21 07:27:52;;;;;;;;;;;;;;;15.81;80.33;101109.11;1945163;74;20139;-62
2021/09/21 07:30:20;;;;;;;;;;;;;;;15.78;80.50;101112.41;1945155;74;20141;-62
2021/09/21 07:32:48;;;;;;;;;;;;;;;15.67;80.52;101120.07;1945177;74;20178;-61
2021/09/21 07:35:16;;;;;;;;;;;;;;;15.63;80.65;101119.38;1945210;74;20105;-62
2021/09/21 07:37:44;;;;;;;;;;;;;;;15.53;80.74;101120.36;1945179;74;20112;-62
2021/09/21 07:40:12;;;;;;;;;;;;;;;15.47;80.84;101116.68;1945234;74;20112;-61
2021/09/21 07:42:40;;;;;;;;;;;;;;;15.44;80.94;101119.52;1945180;74;20136;-62
2021/09/21 07:45:09;;;;;;;;;;;;;;;15.41;81.07;101117.02;1945189;74;20143;-62
2021/09/21 07:47:37;;;;;;;;;;;;;;;15.39;81.23;101113.59;1945105;74;20359;-62
2021/09/21 07:50:06;;;;;;;;;;;;;;;15.36;81.65;101111.97;1945072;74;20219;-62
2021/09/21 07:52:33;;;;;;;;;;;;;;;15.33;81.60;101108.63;1945191;74;20378;-62
2021/09/21 07:55:01;;;;;;;;;;;;;;;15.28;81.36;101112.83;1945160;74;20142;-61
2021/09/21 07:57:29;;;;;;;;;;;;;;;15.22;81.65;101115.82;1945163;74;20171;-62
2021/09/21 07:59:57;;;;;;;;;;;;;;;15.15;81.86;101114.42;1945302;74;20117;-62
2021/09/21 08:02:25;;;;;;;;;;;;;;;15.12;82.00;101119.88;1945232;74;20234;-62
2021/09/21 08:04:53;;;;;;;;;;;;;;;15.09;82.07;101131.95;1945257;74;20112;-61
2021/09/21 08:07:21;;;;;;;;;;;;;;;15.05;82.05;101124.18;1943153;74;20112;-62
2021/09/21 08:09:49;;;;;;;;;;;;;;;15.05;82.25;101109.59;1941363;74;20156;-62
2021/09/21 08:12:17;;;;;;;;;;;;;;;15.08;82.07;101106.39;1941366;74;20112;-61
2021/09/21 08:14:48;;;;;;;;;;;;;;;15.15;82.31;101113.94;1941462;74;20104;-62
2021/09/21 08:17:14;;;;;;;;;;;;;;;15.17;82.03;101106.77;1941331;74;20112;-61
2021/09/21 08:19:42;;;;;;;;;;;;;;;15.22;81.95;101110.52;1941496;74;20117;-62
2021/09/21 08:22:10;;;;;;;;;;;;;;;15.30;81.65;101113.60;1941442;74;20157;-62
2021/09/21 08:24:38;;;;;;;;;;;;;;;15.38;81.76;101104.78;1941525;74;20105;-61
2021/09/21 08:27:06;;;;;;;;;;;;;;;15.44;81.42;101111.56;1941400;74;20109;-61
2021/09/21 08:29:34;;;;;;;;;;;;;;;15.48;81.23;101114.91;1941263;74;20117;-62
2021/09/21 08:32:02;;;;;;;;;;;;;;;15.49;80.98;101120.59;1941321;74;20117;-62
2021/09/21 08:34:30;;;;;;;;;;;;;;;15.40;80.87;101126.78;1941268;74;20143;-61
2021/09/21 08:36:58;;;;;;;;;;;;;;;15.35;80.92;101120.86;1941384;74;20139;-61
2021/09/21 08:39:26;;;;;;;;;;;;;;;15.33;80.83;101104.16;1941417;74;20147;-63
2021/09/21 08:41:54;;;;;;;;;;;;;;;15.32;80.80;101113.05;1941197;74;20096;-62
2021/09/21 08:44:22;;;;;;;;;;;;;;;15.33;80.85;101118.76;1941422;74;20117;-61
2021/09/21 08:46:49;;;;;;;;;;;;;;;15.34;80.86;101116.95;1941284;74;20195;-61
2021/09/21 08:49:17;;;;;;;;;;;;;;;15.28;80.98;101116.81;1941164;74;20143;-61
2021/09/21 08:51:48;;;;;;;;;;;;;;;15.23;80.95;101114.86;1941272;74;20101;-61
2021/09/21 08:54:17;;;;;;;;;;;;;;;15.18;80.92;101119.55;1941267;74;20117;-61
2021/09/21 08:56:46;;;;;;;;;;;;;;;15.14;80.92;101119.33;1941192;74;20199;-62
2021/09/21 08:59:15;;;;;;;;;;;;;;;15.12;81.29;101117.22;1941198;74;20607;-62
2021/09/21 09:01:47;;;;;;;;;;;;;;;15.08;81.21;101124.95;1941218;74;20104;-62
2021/09/21 09:04:16;;;;;;;;;;;;;;;15.01;81.31;101126.61;1941311;74;20158;-62
2021/09/21 09:06:54;;;;;;;;;;;;;;;14.99;81.50;101125.80;1941251;73;20395;-61
2021/09/21 09:09:23;;;;;;;;;;;;;;;14.94;81.66;101113.27;1945073;74;20203;-62
2021/09/21 09:11:58;;;;;;;;;;;;;;;14.93;81.81;101110.22;1945133;74;20147;-62
2021/09/21 09:14:41;;;;;;;;;;;;;;;14.94;81.93;101105.77;1945405;74;20383;-62
2021/09/21 09:17:10;;;;;;;;;;;;;;;14.99;82.12;101098.44;1945162;74;20109;-62
2021/09/21 09:19:43;;;;;;;;;;;;;;;15.05;81.94;101096.34;1945001;74;20227;-62
2021/09/21 09:22:17;;;;;;;;;;;;;;;15.10;81.92;101093.91;1945156;74;20156;-62
2021/09/21 09:24:54;;;;;;;;;;;;;;;15.11;81.80;101096.96;1944477;74;20148;-62
2021/09/21 09:27:23;;;;;;;;;;;;;;;15.17;81.62;101098.80;1945185;74;20386;-62
2021/09/21 09:29:59;;;;;;;;;;;;;;;15.18;81.64;101103.19;1944832;73;20121;-62
2021/09/21 09:32:28;;;;;;;;;;;;;;;15.22;81.64;101111.36;1955702;72;20103;-62
2021/09/21 09:35:00;;;;;;;;;;;;;;;15.30;81.62;101106.12;1940229;74;20151;-62
2021/09/21 09:37:29;;;;;;;;;;;;;;;15.33;81.41;101096.20;1956145;73;20112;-62
2021/09/21 09:40:01;;;;;;;;;;;;;;;15.36;81.24;101102.69;1972953;73;20143;-62
2021/09/21 09:42:30;;;;;;;;;;;;;;;15.35;81.02;101094.33;1974634;73;20417;-62
2021/09/21 09:45:00;;;;;;;;;;;;;;;15.37;80.96;101093.77;1938145;74;20113;-62
2021/09/21 09:47:28;;;;;;;;;;;;;;;15.49;80.84;101100.68;1956068;73;20170;-62
2021/09/21 09:49:56;;;;;;;;;;;;;;;15.59;80.58;101097.93;1940218;74;20101;-62
2021/09/21 09:52:23;;;;;;;;;;;;;;;15.69;80.34;101086.33;1955996;73;20140;-62
2021/09/21 09:54:51;;;;;;;;;;;;;;;15.82;80.30;101088.27;1940180;74;20141;-62
2021/09/21 09:57:19;;;;;;;;;;;;;;;15.92;80.04;101089.09;1956004;73;20213;-62
2021/09/21 09:59:47;;;;;;;;;;;;;;;15.98;79.95;101092.72;1940250;74;20101;-62
2021/09/21 10:02:16;;;;;;;;;;;;;;;16.05;79.66;101097.23;1955984;73;20166;-61
2021/09/21 10:04:47;;;;;;;;;;;;;;;16.08;79.45;101098.36;1954529;73;20437;-62
2021/09/21 10:07:15;;;;;;;;;;;;;;;16.09;79.21;101089.46;1940015;73;20123;-61
2021/09/21 10:09:43;;;;;;;;;;;;;;;16.11;79.13;101095.54;1974656;73;20162;-62
2021/09/21 10:12:12;;;;;;;;;;;;;;;16.11;78.86;101097.72;1938258;74;20113;-62
2021/09/21 10:14:41;;;;;;;;;;;;;;;16.12;78.84;101095.45;1940228;74;20408;-62
2021/09/21 10:17:09;;;;;;;;;;;;;;;16.19;78.78;101100.81;1956199;73;20135;-62
2021/09/21 10:19:40;;;;;;;;;;;;;;;16.21;78.67;101105.56;1940285;74;20144;-62
2021/09/21 10:22:07;;;;;;;;;;;;;;;16.24;78.54;101106.33;1955854;73;20131;-62
2021/09/21 10:24:42;;;;;;;;;;;;;;;16.33;78.41;101113.30;1940234;74;20117;-62
2021/09/21 10:27:11;;;;;;;;;;;;;;;16.54;78.22;101110.34;1956023;73;20170;-61
2021/09/21 10:29:40;;;;;;;;;;;;;;;16.78;77.82;101114.69;1940241;74;20109;-61
2021/09/21 10:32:12;;;;;;;;;;;;;;;16.98;77.63;101106.41;1966982;73;20112;-61
2021/09/21 10:34:41;;;;;;;;;;;;;;;17.18;77.28;101101.69;1975968;73;20112;-61
2021/09/21 10:37:09;;;;;;;;;;;;;;;17.31;76.95;101102.64;1974870;71;20138;-61
2021/09/21 10:39:37;;;;;;;;;;;;;;;17.26;76.05;101104.72;1976054;73;20099;-61
2021/09/21 10:42:07;;;;;;;;;;;;;;;17.15;76.20;101105.86;1976026;73;20142;-61
2021/09/21 10:44:35;;;;;;;;;;;;;;;16.98;76.29;101119.70;1976076;73;20385;-62
2021/09/21 10:47:05;;;;;;;;;;;;;;;16.79;76.46;101129.23;1976001;73;20173;-64
2021/09/21 10:49:36;;;;;;;;;;;;;;;16.70;76.65;101116.95;1976178;73;20480;-62
2021/09/21 10:52:05;;;;;;;;;;;;;;;16.67;76.61;101122.44;1975880;72;20138;-63
2021/09/21 10:54:35;;;;;;;;;;;;;;;16.60;76.82;101122.81;1976021;73;20151;-61
2021/09/21 10:57:07;;;;;;;;;;;;;;;16.54;76.94;101123.17;1976216;73;20189;-62
2021/09/21 10:59:35;;;;;;;;;;;;;;;16.51;77.00;101119.36;1975288;73;20138;-62
2021/09/21 11:02:04;;;;;;;;;;;;;;;16.47;76.30;101112.52;1976008;73;20159;-62
2021/09/21 11:04:36;;;;;;;;;;;;;;;16.42;76.39;101117.72;1974842;72;20116;-61
2021/09/21 11:07:05;;;;;;;;;;;;;;;16.39;76.32;101118.73;1975078;73;20100;-62
2021/09/21 11:09:32;;;;;;;;;;;;;;;16.41;76.29;101108.86;1976027;73;20374;-62
2021/09/21 11:12:05;;;;;;;;;;;;;;;16.45;76.01;101104.22;1975958;73;20107;-62
2021/09/21 11:14:34;;;;;;;;;;;;;;;16.49;76.02;101109.73;1974877;73;20270;-62
2021/09/21 11:17:02;;;;;;;;;;;;;;;16.55;75.99;101113.39;1976080;73;20162;-62
2021/09/21 11:19:32;;;;;;;;;;;;;;;16.66;75.97;101106.12;1976066;73;20112;-62
2021/09/21 11:22:05;;;;;;;;;;;;;;;16.73;75.85;101109.66;1976050;73;20399;-63
2021/09/21 11:24:33;;;;;;;;;;;;;;;16.74;75.84;101114.01;1976075;73;20112;-63
2021/09/21 11:27:02;;;;;;;;;;;;;;;16.76;75.87;101109.45;1976048;73;20116;-63
2021/09/21 11:29:31;;;;;;;;;;;;;;;16.85;75.58;101102.77;1976062;73;20386;-62
2021/09/21 11:31:59;;;;;;;;;;;;;;;16.95;75.26;101114.59;1972297;72;20456;-62
2021/09/21 11:34:29;;;;;;;;;;;;;;;17.05;75.14;101120.69;1941258;74;20148;-63
2021/09/21 11:37:03;;;;;;;;;;;;;;;17.22;75.00;101119.66;1957236;73;20140;-63
2021/09/21 11:39:31;;;;;;;;;;;;;;;17.37;74.69;101122.70;1941355;74;20125;-63
2021/09/21 11:41:59;;;;;;;;;;;;;;;17.59;74.45;101124.89;1957205;73;20170;-62
2021/09/21 11:44:33;;;;;;;;;;;;;;;17.73;73.69;101127.55;1941287;74;20122;-63
2021/09/21 11:46:58;;;;;;;;;;;;;;;17.72;73.16;101132.97;1973802;73;20104;-63
2021/09/21 11:49:26;;;;;;;;;;;;;;;17.78;73.46;101133.06;1957157;73;20170;-64
2021/09/21 11:51:54;;;;;;;;;;;;;;;17.82;73.71;101131.94;1941148;74;20220;-62
2021/09/21 11:54:22;;;;;;;;;;;;;;;17.75;73.06;101133.63;1957006;73;20136;-63
2021/09/21 11:56:54;;;;;;;;;;;;;;;17.75;73.11;101133.63;1941371;73;20144;-63
2021/09/21 11:59:20;;;;;;;;;;;;;;;17.67;73.27;101132.39;1956459;73;20156;-63
2021/09/21 12:01:49;;;;;;;;;;;;;;;17.46;73.52;101132.78;1941267;74;20101;-63
2021/09/21 12:04:18;;;;;;;;;;;;;;;17.33;73.82;101138.48;1956948;73;20163;-63
2021/09/21 12:06:47;;;;;;;;;;;;;;;17.22;74.10;101133.81;1941268;74;20113;-63
2021/09/21 12:09:15;;;;;;;;;;;;;;;17.12;74.22;101140.66;1957029;73;20140;-63
2021/09/21 12:11:44;;;;;;;;;;;;;;;16.96;74.30;101140.22;1941249;74;20148;-63
2021/09/21 12:14:12;;;;;;;;;;;;;;;16.86;74.39;101144.39;1957027;73;20128;-62
2021/09/21 12:16:39;;;;;;;;;;;;;;;16.80;74.51;101138.05;1941165;73;20183;-63
2021/09/21 12:19:15;;;;;;;;;;;;;;;16.72;74.63;101141.65;1957012;73;20136;-63
2021/09/21 12:21:44;;;;;;;;;;;;;;;16.67;74.63;101147.70;1941268;74;20113;-62
2021/09/21 12:24:12;;;;;;;;;;;;;;;16.63;74.75;101143.03;1957035;73;20132;-63
2021/09/21 12:26:40;;;;;;;;;;;;;;;16.60;74.79;101146.73;1941304;73;20113;-62
2021/09/21 12:29:08;;;;;;;;;;;;;;;16.58;74.94;101145.97;1956937;73;20170;-63
2021/09/21 12:31:36;;;;;;;;;;;;;;;16.54;75.00;101144.44;1941233;73;20188;-63
2021/09/21 12:34:09;;;;;;;;;;;;;;;16.51;75.04;101143.28;1971936;73;20197;-62
2021/09/21 12:36:42;;;;;;;;;;;;;;;16.51;75.14;101139.30;1976165;73;20184;-62
2021/09/21 12:39:09;;;;;;;;;;;;;;;16.54;75.27;101141.78;1975573;73;20116;-62
2021/09/21 12:41:39;;;;;;;;;;;;;;;16.58;75.40;101136.67;1976078;73;20134;-64
2021/09/21 12:44:08;;;;;;;;;;;;;;;16.62;75.38;101136.47;1976104;73;20378;-62
2021/09/21 12:46:39;;;;;;;;;;;;;;;16.65;75.29;101132.31;1976092;73;20147;-63
2021/09/21 12:49:07;;;;;;;;;;;;;;;16.68;75.47;101126.83;1976096;73;20116;-62
2021/09/21 12:51:36;;;;;;;;;;;;;;;16.73;75.41;101130.08;1976122;73;20143;-63
2021/09/21 12:54:06;;;;;;;;;;;;;;;16.78;75.32;101131.97;1976106;73;20163;-63
2021/09/21 12:56:34;;;;;;;;;;;;;;;16.76;75.37;101140.03;1976102;73;20433;-63
2021/09/21 12:59:06;;;;;;;;;;;;;;;16.74;75.49;101142.41;1976312;73;20120;-63